KFFC

Atlanta Regional Falcon Field Airport

Atlanta, Georgia, USA
METAR KFFC 231436Z AUTO 25004KT 10SM BKN015 BKN021 OVC065 24/21 A3011 RMK AO2 T02390211
Observed Flight Rules
May-23 @ 14:36 UTC (24 minutes ago) Marginal Visual Flight Rules
Wind Visibility Clouds
250° at 4 knots 10 miles
  • Broken at 1,500' AGL
  • Broken at 2,100' AGL
  • Overcast at 6,500' AGL
Temperatures Readings
Current 24°C / 75°F
Dewpoint 21°C / 70°F
Humidity 83%
Altimeter 30.11" Hg
Pressure 1020 hPa
Elevation 262
METAR KFFC 231436Z AUTO 25004KT 10SM BKN015 BKN021 OVC065 24/21 A3011 RMK AO2 T02390211
Observed Flight Rules
May-23 @ 14:36 UTC
(24 minutes ago)
MVFR
Wind Visibility
250° at 4 knots 10 miles
Clouds
  • Broken at 1,500' AGL
  • Broken at 2,100' AGL
  • Overcast at 6,500' AGL
Temperature Dewpoint
24°C / 75°F 21°C / 70°F
Humidity Altimeter Pressure
83% 30.11" Hg 1020 hPa